createdAt,value
2018-09-27T00:01:50.137Z,94.50
2018-09-27T00:04:19.229Z,94.40
2018-09-27T00:06:47.826Z,94.50
2018-09-27T00:09:16.323Z,94.50
2018-09-27T00:11:44.717Z,94.90
2018-09-27T00:14:13.371Z,94.50
2018-09-27T00:16:41.703Z,94.50
2018-09-27T00:19:10.019Z,94.80
2018-09-27T00:21:39.143Z,94.90
2018-09-27T00:24:07.469Z,94.80
2018-09-27T00:26:35.799Z,94.60
2018-09-27T00:29:04.214Z,94.90
2018-09-27T00:31:32.793Z,95.00
2018-09-27T00:34:01.110Z,95.00
2018-09-27T00:36:29.537Z,95.10
2018-09-27T00:38:58.137Z,95.40
2018-09-27T00:41:26.505Z,95.60
2018-09-27T00:43:54.897Z,95.80
2018-09-27T00:46:23.241Z,96.00
2018-09-27T00:48:51.585Z,96.20
2018-09-27T00:51:19.929Z,96.40
2018-09-27T00:53:48.303Z,96.40
2018-09-27T00:56:16.727Z,96.50
2018-09-27T00:58:45.182Z,96.70
2018-09-27T01:01:13.564Z,96.70
2018-09-27T01:03:41.985Z,96.80
2018-09-27T01:06:11.119Z,96.70
2018-09-27T01:08:39.439Z,96.70
2018-09-27T01:11:07.779Z,96.70
2018-09-27T01:13:36.111Z,96.70
2018-09-27T01:16:04.439Z,96.70
2018-09-27T01:18:32.777Z,96.70
2018-09-27T01:21:01.997Z,97.00
2018-09-27T01:23:30.374Z,97.00
2018-09-27T01:25:58.728Z,97.00
2018-09-27T01:28:27.831Z,97.00
2018-09-27T01:30:56.945Z,97.00
2018-09-27T01:33:25.342Z,97.00
2018-09-27T01:35:53.670Z,96.80
2018-09-27T01:38:22.779Z,97.40
2018-09-27T01:40:51.899Z,97.00
2018-09-27T01:43:20.257Z,97.00
2018-09-27T01:45:49.368Z,97.00
2018-09-27T01:48:17.758Z,97.00
2018-09-27T01:50:46.088Z,97.20
2018-09-27T01:53:14.422Z,97.20
2018-09-27T01:55:42.826Z,97.20
2018-09-27T01:58:11.158Z,97.40
2018-09-27T02:00:39.504Z,97.40
2018-09-27T02:03:07.839Z,97.50
2018-09-27T02:05:36.233Z,97.60
2018-09-27T02:08:04.633Z,97.70
2018-09-27T02:10:32.981Z,98.10
2018-09-27T02:13:01.305Z,97.90
2018-09-27T02:15:29.661Z,98.00
2018-09-27T02:17:58.093Z,98.10
2018-09-27T02:20:26.475Z,98.20
2018-09-27T02:22:54.871Z,98.30
2018-09-27T02:25:23.232Z,98.50
2018-09-27T02:27:51.604Z,98.60
2018-09-27T02:30:20.715Z,99.10
2018-09-27T02:32:49.063Z,99.10
2018-09-27T02:35:17.397Z,99.20
2018-09-27T02:37:45.714Z,99.40
2018-09-27T02:40:14.051Z,99.50
2018-09-27T02:42:42.517Z,99.70
2018-09-27T02:45:10.972Z,99.90
2018-09-27T02:47:39.311Z,99.90
2018-09-27T02:50:07.679Z,99.90
2018-09-27T02:52:36.027Z,99.90
2018-09-27T02:55:04.411Z,99.90
2018-09-27T02:57:32.877Z,99.90
2018-09-27T03:00:01.224Z,99.90
2018-09-27T03:02:29.647Z,99.90
2018-09-27T03:04:58.089Z,99.90
2018-09-27T03:07:26.401Z,99.90
2018-09-27T03:09:54.884Z,99.90
2018-09-27T03:12:23.397Z,99.90
2018-09-27T03:14:51.710Z,99.90
2018-09-27T03:17:20.123Z,99.90
2018-09-27T03:19:48.469Z,99.90
2018-09-27T03:22:16.805Z,99.90
2018-09-27T03:24:45.287Z,99.90
2018-09-27T03:27:13.599Z,99.90
2018-09-27T03:29:42.128Z,99.90
2018-09-27T03:32:10.446Z,99.90
2018-09-27T03:34:38.785Z,99.90
2018-09-27T03:37:07.104Z,99.90
2018-09-27T03:39:35.507Z,99.90
2018-09-27T03:42:03.801Z,99.90
2018-09-27T03:44:32.909Z,99.90
2018-09-27T03:47:01.235Z,99.90
2018-09-27T03:49:29.570Z,99.90
2018-09-27T03:51:58.317Z,99.90
2018-09-27T03:54:26.668Z,99.90
2018-09-27T03:56:56.057Z,99.90
2018-09-27T03:59:24.489Z,99.90
2018-09-27T04:01:52.825Z,99.90
2018-09-27T04:04:21.447Z,99.90
2018-09-27T04:06:49.843Z,99.90
2018-09-27T04:09:18.231Z,99.90
2018-09-27T04:11:46.560Z,99.90
2018-09-27T04:14:15.095Z,99.90
2018-09-27T04:16:43.539Z,99.90
2018-09-27T04:19:11.888Z,99.90
2018-09-27T04:21:40.234Z,99.90
2018-09-27T04:24:09.564Z,99.90
2018-09-27T04:26:37.831Z,99.90
2018-09-27T04:29:06.194Z,99.90
2018-09-27T04:31:34.537Z,99.90
2018-09-27T04:34:03.001Z,99.90
2018-09-27T04:36:31.531Z,99.90
2018-09-27T04:38:59.865Z,99.90
2018-09-27T04:41:28.347Z,99.90
2018-09-27T04:43:56.685Z,99.90
2018-09-27T04:46:25.021Z,99.90
2018-09-27T04:48:53.414Z,99.90
2018-09-27T04:51:22.523Z,99.90
2018-09-27T04:53:51.665Z,99.90
2018-09-27T04:56:20.171Z,99.90
2018-09-27T04:58:48.667Z,99.90
2018-09-27T05:01:17.027Z,99.90
2018-09-27T05:03:45.374Z,99.90
2018-09-27T05:06:13.755Z,99.90
2018-09-27T05:08:42.109Z,99.90
2018-09-27T05:11:11.241Z,99.90
2018-09-27T05:13:39.600Z,99.90
2018-09-27T05:16:08.674Z,99.90
2018-09-27T05:18:37.020Z,99.90
2018-09-27T05:21:05.375Z,99.90
2018-09-27T05:23:33.734Z,99.90
2018-09-27T05:26:02.175Z,99.90
2018-09-27T05:28:31.357Z,99.90
2018-09-27T05:30:59.801Z,99.90
2018-09-27T05:33:28.249Z,99.90
2018-09-27T05:35:56.601Z,99.90
2018-09-27T05:38:24.944Z,99.90
2018-09-27T05:40:53.311Z,99.90
2018-09-27T05:43:21.652Z,99.90
2018-09-27T05:45:50.324Z,99.90
2018-09-27T05:48:18.775Z,99.90
2018-09-27T05:50:47.096Z,99.90
2018-09-27T05:53:15.461Z,99.90
2018-09-27T05:55:43.870Z,99.90
2018-09-27T05:58:12.159Z,99.90
2018-09-27T06:00:40.643Z,99.90
2018-09-27T06:03:09.150Z,99.90
2018-09-27T06:05:37.781Z,99.90
2018-09-27T06:08:06.114Z,99.90
2018-09-27T06:10:34.490Z,99.90
2018-09-27T06:13:02.921Z,99.90
2018-09-27T06:15:31.296Z,99.90
2018-09-27T06:17:59.667Z,99.90
2018-09-27T06:20:28.018Z,99.90
2018-09-27T06:22:56.436Z,99.90
2018-09-27T06:25:25.587Z,99.90
2018-09-27T06:27:54.014Z,99.90
2018-09-27T06:30:22.418Z,99.90
2018-09-27T06:32:50.797Z,99.90
2018-09-27T06:35:19.203Z,99.90
2018-09-27T06:37:47.685Z,99.90
2018-09-27T06:40:16.029Z,99.90
2018-09-27T06:42:45.169Z,99.90
2018-09-27T06:45:13.473Z,99.90
2018-09-27T06:47:41.831Z,99.90
2018-09-27T06:50:10.223Z,99.90
2018-09-27T06:52:38.595Z,99.90
2018-09-27T06:55:07.099Z,99.90
2018-09-27T06:57:35.353Z,99.90
2018-09-27T07:00:03.715Z,99.90
2018-09-27T07:02:32.125Z,99.90
2018-09-27T07:05:00.493Z,99.90
2018-09-27T07:07:29.657Z,99.90
2018-09-27T07:09:58.269Z,99.90
2018-09-27T07:12:26.894Z,99.80
2018-09-27T07:14:55.043Z,99.80
2018-09-27T07:17:23.404Z,99.30
2018-09-27T07:19:51.829Z,99.10
2018-09-27T07:22:20.955Z,99.20
2018-09-27T07:24:49.271Z,98.90
2018-09-27T07:27:17.649Z,98.90
2018-09-27T07:29:45.989Z,98.30
2018-09-27T07:32:14.358Z,98.40
2018-09-27T07:34:43.056Z,97.50
2018-09-27T07:37:11.444Z,97.60
2018-09-27T07:39:39.799Z,97.60
2018-09-27T07:42:08.134Z,97.40
2018-09-27T07:44:36.629Z,97.40
2018-09-27T07:47:04.943Z,97.70
2018-09-27T07:49:33.364Z,97.40
2018-09-27T07:52:01.703Z,97.50
2018-09-27T07:54:30.152Z,96.90
2018-09-27T07:56:58.413Z,96.40
2018-09-27T07:59:26.757Z,96.90
2018-09-27T08:01:55.125Z,96.50
2018-09-27T08:04:23.461Z,96.70
2018-09-27T08:06:51.805Z,96.50
2018-09-27T08:09:20.148Z,95.80
2018-09-27T08:11:48.554Z,96.00
2018-09-27T08:14:16.907Z,96.10
2018-09-27T08:16:45.235Z,96.40
2018-09-27T08:19:13.583Z,95.50
2018-09-27T08:21:41.905Z,95.60
2018-09-27T08:24:10.299Z,95.50
2018-09-27T08:26:38.632Z,94.70
2018-09-27T08:29:07.416Z,94.80
2018-09-27T08:31:35.715Z,94.60
2018-09-27T08:34:04.085Z,94.50
2018-09-27T08:36:32.432Z,94.40
2018-09-27T08:39:00.912Z,94.50
2018-09-27T08:41:29.368Z,94.40
2018-09-27T08:43:57.734Z,94.70
2018-09-27T08:46:26.068Z,94.50
2018-09-27T08:48:54.414Z,94.50
2018-09-27T08:51:23.508Z,94.10
2018-09-27T08:53:51.861Z,94.10
2018-09-27T08:56:20.230Z,94.00
2018-09-27T08:58:48.549Z,94.20
2018-09-27T09:01:17.642Z,94.50
2018-09-27T09:03:46.127Z,94.50
2018-09-27T09:06:14.432Z,94.30
2018-09-27T09:08:42.807Z,93.90
2018-09-27T09:11:11.174Z,94.10
2018-09-27T09:13:39.601Z,93.60
2018-09-27T09:16:07.890Z,93.70
2018-09-27T09:18:36.228Z,94.00
2018-09-27T09:21:04.558Z,93.90
2018-09-27T09:23:32.918Z,93.70
2018-09-27T09:26:01.362Z,93.80
2018-09-27T09:28:29.786Z,94.10
2018-09-27T09:30:58.112Z,94.40
2018-09-27T09:33:26.551Z,93.40
2018-09-27T09:35:54.904Z,93.40
2018-09-27T09:38:23.221Z,93.40
2018-09-27T09:40:51.631Z,93.50
2018-09-27T09:43:19.973Z,93.60
2018-09-27T09:45:48.341Z,93.20
2018-09-27T09:48:16.700Z,93.50
2018-09-27T09:50:45.298Z,92.70
2018-09-27T09:53:13.644Z,93.00
2018-09-27T09:55:41.964Z,92.80
2018-09-27T09:58:10.337Z,92.60
2018-09-27T10:00:38.769Z,93.20
2018-09-27T10:03:07.163Z,93.10
2018-09-27T10:05:35.650Z,93.40
2018-09-27T10:08:04.009Z,93.60
2018-09-27T10:10:32.368Z,93.90
2018-09-27T10:13:01.455Z,94.80
2018-09-27T10:15:31.206Z,95.10
2018-09-27T10:17:59.543Z,95.00
2018-09-27T10:20:28.151Z,95.70
2018-09-27T10:22:57.349Z,96.10
2018-09-27T10:25:25.709Z,96.10
2018-09-27T10:27:54.833Z,96.30
2018-09-27T10:30:23.224Z,96.20
2018-09-27T10:32:51.598Z,96.50
2018-09-27T10:35:19.966Z,96.20
2018-09-27T10:37:48.450Z,95.80
2018-09-27T10:40:17.072Z,95.10
2018-09-27T10:42:45.384Z,94.40
2018-09-27T10:45:13.736Z,94.40
2018-09-27T10:47:42.066Z,94.20
2018-09-27T10:50:10.427Z,92.50
2018-09-27T10:52:38.823Z,92.00
2018-09-27T10:55:07.161Z,91.70
2018-09-27T10:57:36.610Z,91.00
2018-09-27T11:00:05.025Z,90.50
2018-09-27T11:02:33.383Z,89.40
2018-09-27T11:05:01.734Z,87.80
2018-09-27T11:07:30.162Z,85.60
2018-09-27T11:09:59.122Z,88.70
2018-09-27T11:12:27.542Z,87.40
2018-09-27T11:14:55.977Z,85.00
2018-09-27T11:17:24.619Z,85.60
2018-09-27T11:19:53.143Z,83.70
2018-09-27T11:22:22.855Z,80.80
2018-09-27T11:24:51.204Z,80.70
2018-09-27T11:27:19.566Z,79.60
2018-09-27T11:32:45.288Z,80.00
2018-09-27T11:35:13.635Z,78.90
2018-09-27T11:37:42.016Z,79.30
2018-09-27T11:40:10.384Z,80.70
2018-09-27T11:42:39.489Z,78.70
2018-09-27T11:45:08.581Z,78.40
2018-09-27T11:47:36.915Z,78.30
2018-09-27T11:50:05.638Z,75.90
2018-09-27T11:52:33.950Z,74.40
2018-09-27T11:55:02.712Z,76.00
2018-09-27T11:57:30.994Z,74.10
2018-09-27T11:59:59.360Z,72.00
2018-09-27T12:02:27.703Z,72.40
2018-09-27T12:04:56.058Z,71.40
2018-09-27T12:07:24.452Z,68.40
2018-09-27T12:09:52.795Z,71.30
2018-09-27T12:12:21.188Z,70.00
2018-09-27T12:14:49.693Z,69.90
2018-09-27T12:17:18.328Z,67.20
2018-09-27T12:19:46.847Z,70.10
2018-09-27T12:22:15.183Z,70.30
2018-09-27T12:24:44.314Z,66.80
2018-09-27T12:27:12.772Z,66.80
2018-09-27T12:29:41.198Z,67.30
2018-09-27T12:32:09.640Z,69.20
2018-09-27T12:34:38.102Z,67.70
2018-09-27T12:37:06.598Z,67.50
2018-09-27T12:39:34.962Z,67.40
2018-09-27T12:42:03.503Z,65.20
2018-09-27T12:44:31.623Z,64.60
2018-09-27T12:47:00.820Z,65.20
2018-09-27T12:49:29.070Z,66.00
2018-09-27T12:51:57.705Z,67.50
2018-09-27T12:54:25.982Z,65.00
2018-09-27T12:56:54.572Z,63.60
2018-09-27T12:59:22.895Z,64.90
2018-09-27T13:01:51.421Z,65.60
2018-09-27T13:04:20.258Z,66.00
2018-09-27T13:06:48.737Z,64.10
2018-09-27T13:09:17.257Z,62.00
2018-09-27T13:11:45.555Z,63.50
2018-09-27T13:14:14.105Z,63.20
2018-09-27T13:16:42.725Z,64.60
2018-09-27T13:19:11.223Z,60.00
2018-09-27T13:21:39.564Z,63.50
2018-09-27T13:24:08.136Z,64.90
2018-09-27T13:26:36.629Z,62.20
2018-09-27T13:29:04.927Z,61.70
2018-09-27T13:31:33.305Z,61.10
2018-09-27T13:34:01.749Z,60.10
2018-09-27T13:36:30.091Z,59.40
2018-09-27T13:38:58.556Z,60.30
2018-09-27T13:41:26.827Z,59.20
2018-09-27T13:43:55.156Z,58.60
2018-09-27T13:46:23.618Z,59.70
2018-09-27T13:48:51.939Z,58.10
2018-09-27T13:51:20.355Z,59.70
2018-09-27T13:53:48.682Z,58.80
2018-09-27T13:56:17.029Z,59.60
2018-09-27T13:58:45.373Z,58.50
2018-09-27T14:01:13.778Z,59.40
2018-09-27T14:03:42.157Z,60.00
2018-09-27T14:06:10.548Z,57.80
2018-09-27T14:08:38.902Z,58.20
2018-09-27T14:11:07.344Z,56.90
2018-09-27T14:13:35.696Z,58.80
2018-09-27T14:16:04.044Z,57.50
2018-09-27T14:18:32.621Z,57.70
2018-09-27T14:21:00.946Z,57.70
2018-09-27T14:23:29.344Z,57.40
2018-09-27T14:25:57.669Z,59.10
2018-09-27T14:28:26.024Z,58.80
2018-09-27T14:30:55.126Z,59.60
2018-09-27T14:33:24.305Z,59.40
2018-09-27T14:35:53.391Z,58.70
2018-09-27T14:38:21.743Z,58.70
2018-09-27T14:40:50.215Z,58.80
2018-09-27T14:43:19.290Z,59.30
2018-09-27T14:45:47.775Z,59.30
2018-09-27T14:48:16.190Z,57.40
2018-09-27T14:50:44.562Z,58.10
2018-09-27T14:53:13.122Z,56.40
2018-09-27T14:55:41.457Z,57.70
2018-09-27T14:58:09.804Z,58.50
2018-09-27T15:00:38.160Z,56.60
2018-09-27T15:03:06.601Z,59.30
2018-09-27T15:05:34.948Z,58.70
2018-09-27T15:08:03.452Z,58.80
2018-09-27T15:10:31.761Z,58.40
2018-09-27T15:13:00.852Z,58.70
2018-09-27T15:15:29.246Z,58.70
2018-09-27T15:17:57.703Z,59.60
2018-09-27T15:20:26.004Z,59.10
2018-09-27T15:22:54.371Z,58.30
2018-09-27T15:25:22.836Z,58.80
2018-09-27T15:27:51.184Z,58.20
2018-09-27T15:30:19.592Z,58.80
2018-09-27T15:32:47.991Z,58.80
2018-09-27T15:35:16.404Z,58.50
2018-09-27T15:37:44.761Z,58.60
2018-09-27T15:40:13.161Z,57.50
2018-09-27T15:42:41.746Z,58.20
2018-09-27T15:45:10.114Z,58.20
2018-09-27T15:47:38.476Z,57.60
2018-09-27T15:50:07.057Z,56.20
2018-09-27T15:52:35.423Z,56.00
2018-09-27T15:55:04.569Z,56.10
2018-09-27T15:57:32.953Z,56.10
2018-09-27T16:00:01.370Z,55.10
2018-09-27T16:02:29.926Z,54.00
2018-09-27T16:04:58.296Z,54.20
2018-09-27T16:07:26.685Z,52.80
2018-09-27T16:09:55.146Z,53.40
2018-09-27T16:12:23.640Z,51.50
2018-09-27T16:14:52.945Z,50.20
2018-09-27T16:17:22.446Z,50.70
2018-09-27T16:19:50.799Z,50.70
2018-09-27T16:22:19.311Z,49.00
2018-09-27T16:24:47.758Z,49.80
2018-09-27T16:27:16.197Z,48.80
2018-09-27T16:29:44.572Z,49.60
2018-09-27T16:32:12.918Z,49.60
2018-09-27T16:34:41.295Z,50.30
2018-09-27T16:37:09.848Z,51.30
2018-09-27T16:39:38.236Z,49.60
2018-09-27T16:42:06.634Z,48.50
2018-09-27T16:44:35.105Z,50.40
2018-09-27T16:47:03.433Z,50.00
2018-09-27T16:49:31.810Z,49.60
2018-09-27T16:52:00.312Z,50.30
2018-09-27T16:54:32.197Z,50.80
2018-09-27T16:57:00.527Z,52.00
2018-09-27T16:59:29.050Z,51.90
2018-09-27T17:01:57.395Z,52.00
2018-09-27T17:04:25.845Z,52.70
2018-09-27T17:06:54.340Z,53.00
2018-09-27T17:09:22.816Z,52.70
2018-09-27T17:11:51.277Z,54.20
2018-09-27T17:14:19.631Z,54.80
2018-09-27T17:16:47.952Z,54.90
2018-09-27T17:19:16.311Z,56.00
2018-09-27T17:21:44.745Z,55.30
2018-09-27T17:24:13.372Z,57.10
2018-09-27T17:26:41.719Z,58.00
2018-09-27T17:29:10.073Z,56.90
2018-09-27T17:31:38.524Z,59.20
2018-09-27T17:34:06.771Z,60.60
2018-09-27T17:36:35.274Z,62.20
2018-09-27T17:39:03.631Z,62.30
2018-09-27T17:41:32.003Z,62.80
2018-09-27T17:44:01.130Z,63.50
2018-09-27T17:46:29.658Z,63.60
2018-09-27T17:48:57.941Z,62.50
2018-09-27T17:51:26.271Z,63.70
2018-09-27T17:53:54.647Z,64.50
2018-09-27T17:56:23.005Z,65.10
2018-09-27T17:58:51.444Z,64.90
2018-09-27T18:01:20.588Z,65.50
2018-09-27T18:03:48.923Z,65.50
2018-09-27T18:06:17.353Z,65.80
2018-09-27T18:08:45.697Z,66.30
2018-09-27T18:11:14.147Z,63.70
2018-09-27T18:13:42.517Z,64.10
2018-09-27T18:16:10.876Z,64.50
2018-09-27T18:18:39.199Z,65.30
2018-09-27T18:21:07.562Z,66.10
2018-09-27T18:23:36.184Z,65.70
2018-09-27T18:26:04.542Z,67.10
2018-09-27T18:28:37.837Z,66.90
2018-09-27T18:31:06.295Z,66.70
2018-09-27T18:33:34.766Z,63.60
2018-09-27T18:36:03.231Z,61.50
2018-09-27T18:38:31.639Z,62.10
2018-09-27T18:40:59.987Z,64.60
2018-09-27T18:43:28.348Z,65.90
2018-09-27T18:45:56.838Z,65.70
2018-09-27T18:48:25.175Z,65.80
2018-09-27T18:50:53.579Z,65.70
2018-09-27T18:53:22.835Z,67.90
2018-09-27T18:55:51.228Z,67.80
2018-09-27T18:58:19.548Z,71.00
2018-09-27T19:00:48.692Z,69.90
2018-09-27T19:03:17.007Z,69.90
2018-09-27T19:05:45.449Z,70.00
2018-09-27T19:08:13.827Z,71.10
2018-09-27T19:10:42.386Z,71.40
2018-09-27T19:13:10.724Z,70.00
2018-09-27T19:15:39.358Z,70.30
2018-09-27T19:18:07.830Z,69.90
2018-09-27T19:20:36.199Z,69.60
2018-09-27T19:23:04.537Z,67.60
2018-09-27T19:25:32.890Z,64.80
2018-09-27T19:28:01.345Z,65.10
2018-09-27T19:30:29.691Z,64.50
2018-09-27T19:32:58.042Z,63.60
2018-09-27T19:35:26.371Z,62.90
2018-09-27T19:37:54.726Z,62.80
2018-09-27T19:40:23.076Z,62.20
2018-09-27T19:42:51.407Z,62.40
2018-09-27T19:45:19.992Z,63.60
2018-09-27T19:47:48.413Z,63.50
2018-09-27T19:50:16.756Z,63.70
2018-09-27T19:52:45.118Z,64.20
2018-09-27T19:55:14.231Z,63.20
2018-09-27T19:57:42.764Z,63.20
2018-09-27T20:00:11.929Z,63.90
2018-09-27T20:02:40.321Z,63.10
2018-09-27T20:05:09.415Z,64.10
2018-09-27T20:07:37.867Z,63.10
2018-09-27T20:10:06.256Z,63.30
2018-09-27T20:12:34.692Z,63.60
2018-09-27T20:15:04.133Z,63.90
2018-09-27T20:17:32.437Z,64.40
2018-09-27T20:20:00.775Z,63.90
2018-09-27T20:22:29.989Z,64.70
2018-09-27T20:24:59.104Z,65.10
2018-09-27T20:27:27.420Z,65.00
2018-09-27T20:29:55.992Z,65.50
2018-09-27T20:32:24.349Z,65.70
2018-09-27T20:34:52.812Z,66.00
2018-09-27T20:37:21.163Z,66.30
2018-09-27T20:39:49.486Z,66.70
2018-09-27T20:42:17.836Z,66.90
2018-09-27T20:44:46.182Z,67.00
2018-09-27T20:47:14.704Z,67.80
2018-09-27T20:49:43.838Z,68.50
2018-09-27T20:52:12.355Z,68.50
2018-09-27T20:54:40.694Z,68.70
2018-09-27T20:57:09.030Z,68.30
2018-09-27T20:59:38.227Z,69.00
2018-09-27T21:02:07.376Z,69.50
2018-09-27T21:04:35.729Z,69.30
2018-09-27T21:07:04.307Z,69.40
2018-09-27T21:09:33.031Z,68.80
2018-09-27T21:12:01.541Z,69.10
2018-09-27T21:14:30.732Z,69.20
2018-09-27T21:16:59.207Z,69.10
2018-09-27T21:19:27.545Z,69.10
2018-09-27T21:21:56.609Z,69.60
2018-09-27T21:24:25.727Z,70.80
2018-09-27T21:26:55.032Z,71.00
2018-09-27T21:29:23.362Z,70.80
2018-09-27T21:31:51.739Z,70.60
2018-09-27T21:34:20.087Z,70.70
2018-09-27T21:36:48.403Z,70.50
2018-09-27T21:39:16.784Z,70.70
2018-09-27T21:41:45.159Z,70.30
2018-09-27T21:44:13.595Z,70.50
2018-09-27T21:46:41.978Z,70.40
2018-09-27T21:49:10.305Z,70.50
2018-09-27T21:51:38.632Z,70.60
2018-09-27T21:54:07.012Z,71.50
2018-09-27T21:56:35.432Z,71.00
2018-09-27T21:59:03.817Z,71.00
2018-09-27T22:01:32.208Z,71.20
2018-09-27T22:04:01.488Z,71.70
2018-09-27T22:06:29.834Z,71.70
2018-09-27T22:08:58.238Z,71.70
2018-09-27T22:11:26.673Z,71.80
2018-09-27T22:13:55.011Z,72.20
2018-09-27T22:16:23.421Z,73.40
2018-09-27T22:18:52.731Z,72.80
2018-09-27T22:21:21.828Z,72.90
2018-09-27T22:23:50.181Z,72.90
2018-09-27T22:26:18.577Z,72.80
2018-09-27T22:28:47.773Z,73.10
2018-09-27T22:31:16.851Z,73.30
2018-09-27T22:33:45.291Z,73.30
2018-09-27T22:36:13.654Z,73.20
2018-09-27T22:38:41.972Z,73.40
2018-09-27T22:41:11.061Z,73.30
2018-09-27T22:43:39.403Z,73.50
2018-09-27T22:46:07.745Z,73.40
2018-09-27T22:48:36.077Z,73.40
2018-09-27T22:51:04.395Z,74.20
2018-09-27T22:53:32.739Z,75.30
2018-09-27T22:56:01.105Z,77.10
2018-09-27T22:58:29.502Z,77.50
2018-09-27T23:00:57.825Z,77.50
2018-09-27T23:03:26.937Z,76.30
2018-09-27T23:05:55.279Z,76.10
2018-09-27T23:08:23.641Z,75.90
2018-09-27T23:10:51.983Z,75.90
2018-09-27T23:13:20.331Z,76.20
2018-09-27T23:15:49.454Z,76.30
2018-09-27T23:18:17.789Z,76.90
2018-09-27T23:20:46.243Z,77.80
2018-09-27T23:23:14.567Z,78.60
2018-09-27T23:25:42.987Z,78.60
2018-09-27T23:28:11.489Z,79.80
2018-09-27T23:30:39.830Z,79.50
2018-09-27T23:33:08.161Z,78.40
2018-09-27T23:35:36.604Z,78.00
2018-09-27T23:38:04.997Z,78.20
2018-09-27T23:40:33.352Z,78.80
2018-09-27T23:43:01.686Z,79.30
2018-09-27T23:45:30.133Z,79.20
2018-09-27T23:47:58.484Z,79.30
2018-09-27T23:50:26.874Z,79.80
2018-09-27T23:52:55.214Z,80.20
2018-09-27T23:55:23.546Z,80.20
2018-09-27T23:57:51.982Z,80.80
